Didsbury, Canada
Current Conditions -  °F | °C
As of 10:00 AM on Friday 24 Oct 2014 (Local Time) from CYQF Reporting Station
Broken Clouds Broken Clouds  
Wind Chill: 31°   Ceiling: 9000
Heat Index: 37°   Visibility: 15mi
Dew Point: 30°   Wind: 9mph
Humidity: 75%   Direction: 280°W
Pressure: 29.88"   Gusts: NA
Location:  51.67°N, 114.13°W
Report Text: CYQF 241600Z 28008KT 15SM BKN090 BKN200 03/M01 A2988 RMK AC5CI1 VIRGA SLP149
Loading
Personal Weather Stations






























Interactive Weather Map
Tropical Storm Tracking
New forecast layout! Learn more

10-Day Weather Forecast

Advertisements
Track Severe Weather on mobile